sensor_id;sensor_type;location;lat;lon;timestamp;P1;durP1;ratioP1;P2;durP2;ratioP2
69998;SDS011;57339;52.156;5.372;2024-01-11T00:00:32;23.38;;;9.85;;
69998;SDS011;57339;52.156;5.372;2024-01-11T00:02:59;20.92;;;9.75;;
69998;SDS011;57339;52.156;5.372;2024-01-11T00:05:26;19.83;;;9.50;;
69998;SDS011;57339;52.156;5.372;2024-01-11T00:07:53;19.43;;;9.10;;
69998;SDS011;57339;52.156;5.372;2024-01-11T00:10:21;21.10;;;9.05;;
69998;SDS011;57339;52.156;5.372;2024-01-11T00:12:49;20.08;;;8.88;;
69998;SDS011;57339;52.156;5.372;2024-01-11T00:15:16;22.23;;;9.43;;
69998;SDS011;57339;52.156;5.372;2024-01-11T00:17:45;20.05;;;9.20;;
69998;SDS011;57339;52.156;5.372;2024-01-11T00:20:15;22.40;;;9.30;;
69998;SDS011;57339;52.156;5.372;2024-01-11T00:22:42;20.27;;;8.70;;
69998;SDS011;57339;52.156;5.372;2024-01-11T00:25:09;26.02;;;9.45;;
69998;SDS011;57339;52.156;5.372;2024-01-11T00:27:35;24.67;;;10.15;;
69998;SDS011;57339;52.156;5.372;2024-01-11T00:30:03;24.50;;;9.63;;
69998;SDS011;57339;52.156;5.372;2024-01-11T00:32:31;24.07;;;9.60;;
69998;SDS011;57339;52.156;5.372;2024-01-11T00:34:58;27.33;;;10.70;;
69998;SDS011;57339;52.156;5.372;2024-01-11T00:37:25;24.38;;;10.20;;
69998;SDS011;57339;52.156;5.372;2024-01-11T00:39:52;26.20;;;10.68;;
69998;SDS011;57339;52.156;5.372;2024-01-11T00:42:19;26.20;;;10.43;;
69998;SDS011;57339;52.156;5.372;2024-01-11T00:44:46;25.53;;;10.67;;
69998;SDS011;57339;52.156;5.372;2024-01-11T00:47:16;23.83;;;11.32;;
69998;SDS011;57339;52.156;5.372;2024-01-11T00:49:43;23.38;;;10.57;;
69998;SDS011;57339;52.156;5.372;2024-01-11T00:52:11;25.73;;;10.75;;
69998;SDS011;57339;52.156;5.372;2024-01-11T00:54:38;30.48;;;10.70;;
69998;SDS011;57339;52.156;5.372;2024-01-11T00:57:05;25.47;;;11.87;;
69998;SDS011;57339;52.156;5.372;2024-01-11T00:59:32;26.70;;;10.13;;
69998;SDS011;57339;52.156;5.372;2024-01-11T01:01:59;27.05;;;10.88;;
69998;SDS011;57339;52.156;5.372;2024-01-11T01:04:26;25.92;;;11.13;;
69998;SDS011;57339;52.156;5.372;2024-01-11T01:06:53;27.55;;;11.45;;
69998;SDS011;57339;52.156;5.372;2024-01-11T01:09:20;24.93;;;10.43;;
69998;SDS011;57339;52.156;5.372;2024-01-11T01:11:50;24.63;;;10.40;;
69998;SDS011;57339;52.156;5.372;2024-01-11T01:14:18;24.83;;;9.90;;
69998;SDS011;57339;52.156;5.372;2024-01-11T01:16:45;24.90;;;10.85;;
69998;SDS011;57339;52.156;5.372;2024-01-11T01:19:12;25.42;;;10.85;;
69998;SDS011;57339;52.156;5.372;2024-01-11T01:21:39;27.27;;;10.63;;
69998;SDS011;57339;52.156;5.372;2024-01-11T01:24:06;26.42;;;10.48;;
69998;SDS011;57339;52.156;5.372;2024-01-11T01:26:33;27.45;;;10.75;;
69998;SDS011;57339;52.156;5.372;2024-01-11T01:29:04;25.33;;;10.60;;
69998;SDS011;57339;52.156;5.372;2024-01-11T01:31:31;25.27;;;10.00;;
69998;SDS011;57339;52.156;5.372;2024-01-11T01:33:58;23.13;;;10.80;;
69998;SDS011;57339;52.156;5.372;2024-01-11T01:36:25;24.67;;;10.55;;
69998;SDS011;57339;52.156;5.372;2024-01-11T01:38:52;26.45;;;10.43;;
69998;SDS011;57339;52.156;5.372;2024-01-11T01:41:19;24.92;;;10.30;;
69998;SDS011;57339;52.156;5.372;2024-01-11T01:43:46;26.13;;;11.05;;
69998;SDS011;57339;52.156;5.372;2024-01-11T01:46:19;24.93;;;10.33;;
69998;SDS011;57339;52.156;5.372;2024-01-11T01:48:50;23.35;;;10.18;;
69998;SDS011;57339;52.156;5.372;2024-01-11T01:51:18;25.35;;;10.50;;
69998;SDS011;57339;52.156;5.372;2024-01-11T01:53:45;24.98;;;10.73;;
69998;SDS011;57339;52.156;5.372;2024-01-11T01:56:15;27.02;;;10.98;;
69998;SDS011;57339;52.156;5.372;2024-01-11T01:58:45;23.23;;;9.87;;
69998;SDS011;57339;52.156;5.372;2024-01-11T02:01:14;26.30;;;10.70;;
69998;SDS011;57339;52.156;5.372;2024-01-11T02:03:42;23.08;;;10.20;;
69998;SDS011;57339;52.156;5.372;2024-01-11T02:06:10;22.27;;;10.05;;
69998;SDS011;57339;52.156;5.372;2024-01-11T02:08:38;25.13;;;10.95;;
69998;SDS011;57339;52.156;5.372;2024-01-11T02:11:09;27.53;;;11.43;;
69998;SDS011;57339;52.156;5.372;2024-01-11T02:13:37;28.33;;;11.23;;
69998;SDS011;57339;52.156;5.372;2024-01-11T02:16:04;26.50;;;11.25;;
69998;SDS011;57339;52.156;5.372;2024-01-11T02:18:31;26.50;;;11.25;;
69998;SDS011;57339;52.156;5.372;2024-01-11T02:20:58;29.35;;;12.25;;
69998;SDS011;57339;52.156;5.372;2024-01-11T02:23:26;26.03;;;11.50;;
69998;SDS011;57339;52.156;5.372;2024-01-11T02:25:54;28.27;;;11.88;;
69998;SDS011;57339;52.156;5.372;2024-01-11T02:28:21;30.27;;;12.95;;
69998;SDS011;57339;52.156;5.372;2024-01-11T02:30:48;29.15;;;11.75;;
69998;SDS011;57339;52.156;5.372;2024-01-11T02:33:15;28.25;;;12.35;;
69998;SDS011;57339;52.156;5.372;2024-01-11T02:35:45;32.07;;;12.13;;
69998;SDS011;57339;52.156;5.372;2024-01-11T02:38:14;30.90;;;12.55;;
69998;SDS011;57339;52.156;5.372;2024-01-11T02:40:41;29.45;;;12.38;;
69998;SDS011;57339;52.156;5.372;2024-01-11T02:43:10;32.10;;;13.25;;
69998;SDS011;57339;52.156;5.372;2024-01-11T02:45:37;30.17;;;12.40;;
69998;SDS011;57339;52.156;5.372;2024-01-11T02:48:04;30.30;;;12.83;;
69998;SDS011;57339;52.156;5.372;2024-01-11T02:50:32;33.30;;;13.55;;
69998;SDS011;57339;52.156;5.372;2024-01-11T02:52:59;32.83;;;13.50;;
69998;SDS011;57339;52.156;5.372;2024-01-11T02:55:26;33.40;;;13.30;;
69998;SDS011;57339;52.156;5.372;2024-01-11T02:57:53;37.17;;;13.55;;
69998;SDS011;57339;52.156;5.372;2024-01-11T03:00:20;32.87;;;13.43;;
69998;SDS011;57339;52.156;5.372;2024-01-11T03:02:48;32.97;;;14.43;;
69998;SDS011;57339;52.156;5.372;2024-01-11T03:05:15;36.05;;;14.07;;
69998;SDS011;57339;52.156;5.372;2024-01-11T03:07:42;35.40;;;14.88;;
69998;SDS011;57339;52.156;5.372;2024-01-11T03:10:10;39.65;;;16.10;;
69998;SDS011;57339;52.156;5.372;2024-01-11T03:12:37;35.43;;;13.63;;
69998;SDS011;57339;52.156;5.372;2024-01-11T03:15:04;36.17;;;15.75;;
69998;SDS011;57339;52.156;5.372;2024-01-11T03:17:31;35.13;;;14.70;;
69998;SDS011;57339;52.156;5.372;2024-01-11T03:20:00;36.20;;;16.08;;
69998;SDS011;57339;52.156;5.372;2024-01-11T03:22:28;39.88;;;16.40;;
69998;SDS011;57339;52.156;5.372;2024-01-11T03:24:55;37.00;;;16.63;;
69998;SDS011;57339;52.156;5.372;2024-01-11T03:27:22;33.75;;;15.13;;
69998;SDS011;57339;52.156;5.372;2024-01-11T03:29:49;39.33;;;17.13;;
69998;SDS011;57339;52.156;5.372;2024-01-11T03:32:16;35.60;;;16.08;;
69998;SDS011;57339;52.156;5.372;2024-01-11T03:34:45;36.67;;;16.90;;
69998;SDS011;57339;52.156;5.372;2024-01-11T03:37:14;36.40;;;15.93;;
69998;SDS011;57339;52.156;5.372;2024-01-11T03:39:41;38.72;;;15.77;;
69998;SDS011;57339;52.156;5.372;2024-01-11T03:42:08;39.92;;;17.35;;
69998;SDS011;57339;52.156;5.372;2024-01-11T03:44:36;38.75;;;16.88;;
69998;SDS011;57339;52.156;5.372;2024-01-11T03:47:04;35.88;;;15.80;;
69998;SDS011;57339;52.156;5.372;2024-01-11T03:49:31;42.53;;;16.87;;
69998;SDS011;57339;52.156;5.372;2024-01-11T03:51:58;40.00;;;16.73;;
69998;SDS011;57339;52.156;5.372;2024-01-11T03:54:25;35.70;;;16.23;;
69998;SDS011;57339;52.156;5.372;2024-01-11T03:56:53;40.38;;;17.13;;
69998;SDS011;57339;52.156;5.372;2024-01-11T03:59:20;41.08;;;16.70;;
69998;SDS011;57339;52.156;5.372;2024-01-11T04:01:47;36.93;;;17.13;;
69998;SDS011;57339;52.156;5.372;2024-01-11T04:04:15;37.80;;;16.00;;
69998;SDS011;57339;52.156;5.372;2024-01-11T04:06:42;40.88;;;17.70;;
69998;SDS011;57339;52.156;5.372;2024-01-11T04:09:10;36.17;;;16.77;;
69998;SDS011;57339;52.156;5.372;2024-01-11T04:11:37;38.53;;;17.27;;
69998;SDS011;57339;52.156;5.372;2024-01-11T04:14:04;41.43;;;17.43;;
69998;SDS011;57339;52.156;5.372;2024-01-11T04:16:32;40.25;;;18.00;;
69998;SDS011;57339;52.156;5.372;2024-01-11T04:18:59;45.78;;;18.15;;
69998;SDS011;57339;52.156;5.372;2024-01-11T04:21:26;38.50;;;17.15;;
69998;SDS011;57339;52.156;5.372;2024-01-11T04:23:55;41.85;;;17.67;;
69998;SDS011;57339;52.156;5.372;2024-01-11T04:26:23;39.73;;;17.70;;
69998;SDS011;57339;52.156;5.372;2024-01-11T04:28:51;38.85;;;16.80;;
69998;SDS011;57339;52.156;5.372;2024-01-11T04:31:20;42.88;;;19.33;;
69998;SDS011;57339;52.156;5.372;2024-01-11T04:33:47;40.90;;;18.55;;
69998;SDS011;57339;52.156;5.372;2024-01-11T04:36:16;46.08;;;17.83;;
69998;SDS011;57339;52.156;5.372;2024-01-11T04:38:46;42.63;;;17.60;;
69998;SDS011;57339;52.156;5.372;2024-01-11T04:41:14;45.05;;;19.85;;
69998;SDS011;57339;52.156;5.372;2024-01-11T04:43:42;43.85;;;18.30;;
69998;SDS011;57339;52.156;5.372;2024-01-11T04:46:15;47.08;;;18.73;;
69998;SDS011;57339;52.156;5.372;2024-01-11T04:48:49;46.45;;;20.20;;
69998;SDS011;57339;52.156;5.372;2024-01-11T04:51:17;42.83;;;19.17;;
69998;SDS011;57339;52.156;5.372;2024-01-11T04:53:46;47.50;;;20.10;;
69998;SDS011;57339;52.156;5.372;2024-01-11T04:56:16;45.15;;;18.13;;
69998;SDS011;57339;52.156;5.372;2024-01-11T04:58:45;44.15;;;19.50;;
69998;SDS011;57339;52.156;5.372;2024-01-11T05:01:13;46.53;;;20.55;;
69998;SDS011;57339;52.156;5.372;2024-01-11T05:03:41;47.97;;;19.20;;
69998;SDS011;57339;52.156;5.372;2024-01-11T05:06:16;45.08;;;19.40;;
69998;SDS011;57339;52.156;5.372;2024-01-11T05:08:46;49.33;;;20.05;;
69998;SDS011;57339;52.156;5.372;2024-01-11T05:11:19;44.90;;;19.45;;
69998;SDS011;57339;52.156;5.372;2024-01-11T05:13:51;43.45;;;19.27;;
69998;SDS011;57339;52.156;5.372;2024-01-11T05:18:47;45.80;;;19.80;;
69998;SDS011;57339;52.156;5.372;2024-01-11T05:21:15;43.58;;;17.95;;
69998;SDS011;57339;52.156;5.372;2024-01-11T05:23:43;44.15;;;18.13;;
69998;SDS011;57339;52.156;5.372;2024-01-11T05:26:10;45.38;;;19.75;;
69998;SDS011;57339;52.156;5.372;2024-01-11T05:28:37;45.43;;;19.57;;
69998;SDS011;57339;52.156;5.372;2024-01-11T05:31:11;47.45;;;21.27;;
69998;SDS011;57339;52.156;5.372;2024-01-11T05:33:39;47.55;;;20.90;;
69998;SDS011;57339;52.156;5.372;2024-01-11T05:36:08;46.13;;;19.05;;
69998;SDS011;57339;52.156;5.372;2024-01-11T05:38:35;44.85;;;19.52;;
69998;SDS011;57339;52.156;5.372;2024-01-11T05:41:05;44.63;;;20.27;;
69998;SDS011;57339;52.156;5.372;2024-01-11T05:43:32;48.08;;;19.98;;
69998;SDS011;57339;52.156;5.372;2024-01-11T05:45:59;43.70;;;19.67;;
69998;SDS011;57339;52.156;5.372;2024-01-11T05:48:26;44.08;;;19.30;;
69998;SDS011;57339;52.156;5.372;2024-01-11T05:50:53;46.33;;;19.88;;
69998;SDS011;57339;52.156;5.372;2024-01-11T05:53:20;44.07;;;19.43;;
69998;SDS011;57339;52.156;5.372;2024-01-11T05:55:47;45.55;;;19.40;;
69998;SDS011;57339;52.156;5.372;2024-01-11T05:58:21;41.65;;;19.42;;
69998;SDS011;57339;52.156;5.372;2024-01-11T06:00:48;43.58;;;19.45;;
69998;SDS011;57339;52.156;5.372;2024-01-11T06:03:16;44.08;;;20.27;;
69998;SDS011;57339;52.156;5.372;2024-01-11T06:05:43;46.73;;;20.70;;
69998;SDS011;57339;52.156;5.372;2024-01-11T06:08:10;44.88;;;20.75;;
69998;SDS011;57339;52.156;5.372;2024-01-11T06:10:37;52.63;;;21.05;;
69998;SDS011;57339;52.156;5.372;2024-01-11T06:13:05;49.75;;;20.95;;
69998;SDS011;57339;52.156;5.372;2024-01-11T06:15:32;61.55;;;21.85;;
69998;SDS011;57339;52.156;5.372;2024-01-11T06:17:59;46.83;;;19.63;;
69998;SDS011;57339;52.156;5.372;2024-01-11T06:20:27;49.08;;;21.70;;
69998;SDS011;57339;52.156;5.372;2024-01-11T06:22:54;47.95;;;19.08;;
69998;SDS011;57339;52.156;5.372;2024-01-11T06:25:21;52.35;;;21.85;;
69998;SDS011;57339;52.156;5.372;2024-01-11T06:27:48;50.45;;;21.92;;
69998;SDS011;57339;52.156;5.372;2024-01-11T06:30:16;48.47;;;20.87;;
69998;SDS011;57339;52.156;5.372;2024-01-11T06:32:43;49.30;;;21.52;;
69998;SDS011;57339;52.156;5.372;2024-01-11T06:35:10;48.80;;;20.38;;
69998;SDS011;57339;52.156;5.372;2024-01-11T06:37:37;48.58;;;21.05;;
69998;SDS011;57339;52.156;5.372;2024-01-11T06:40:04;46.45;;;20.77;;
69998;SDS011;57339;52.156;5.372;2024-01-11T06:42:32;44.93;;;19.90;;
69998;SDS011;57339;52.156;5.372;2024-01-11T06:44:58;50.38;;;20.60;;
69998;SDS011;57339;52.156;5.372;2024-01-11T06:47:26;49.78;;;22.15;;
69998;SDS011;57339;52.156;5.372;2024-01-11T06:49:53;52.97;;;20.90;;
69998;SDS011;57339;52.156;5.372;2024-01-11T06:52:20;53.22;;;21.02;;
69998;SDS011;57339;52.156;5.372;2024-01-11T06:54:47;45.67;;;20.03;;
69998;SDS011;57339;52.156;5.372;2024-01-11T06:57:16;51.28;;;21.65;;
69998;SDS011;57339;52.156;5.372;2024-01-11T06:59:44;53.33;;;22.70;;
69998;SDS011;57339;52.156;5.372;2024-01-11T07:02:11;60.47;;;24.73;;
69998;SDS011;57339;52.156;5.372;2024-01-11T07:04:43;49.40;;;21.80;;
69998;SDS011;57339;52.156;5.372;2024-01-11T07:07:10;50.50;;;20.90;;
69998;SDS011;57339;52.156;5.372;2024-01-11T07:09:37;50.40;;;21.85;;
69998;SDS011;57339;52.156;5.372;2024-01-11T07:12:04;48.67;;;20.70;;
69998;SDS011;57339;52.156;5.372;2024-01-11T07:14:32;48.42;;;20.33;;
69998;SDS011;57339;52.156;5.372;2024-01-11T07:16:59;49.53;;;21.90;;
69998;SDS011;57339;52.156;5.372;2024-01-11T07:19:26;49.03;;;20.97;;
69998;SDS011;57339;52.156;5.372;2024-01-11T07:21:53;52.65;;;21.55;;
69998;SDS011;57339;52.156;5.372;2024-01-11T07:24:20;48.95;;;20.38;;
69998;SDS011;57339;52.156;5.372;2024-01-11T07:26:47;46.30;;;21.42;;
69998;SDS011;57339;52.156;5.372;2024-01-11T07:29:14;51.80;;;20.88;;
69998;SDS011;57339;52.156;5.372;2024-01-11T07:31:41;48.67;;;21.23;;
69998;SDS011;57339;52.156;5.372;2024-01-11T07:34:09;45.10;;;19.80;;
69998;SDS011;57339;52.156;5.372;2024-01-11T07:36:36;49.50;;;21.15;;
69998;SDS011;57339;52.156;5.372;2024-01-11T07:39:03;50.70;;;22.13;;
69998;SDS011;57339;52.156;5.372;2024-01-11T07:41:30;50.88;;;21.35;;
69998;SDS011;57339;52.156;5.372;2024-01-11T07:43:57;47.80;;;22.13;;
69998;SDS011;57339;52.156;5.372;2024-01-11T07:46:24;52.95;;;20.92;;
69998;SDS011;57339;52.156;5.372;2024-01-11T07:49:04;52.63;;;22.67;;
69998;SDS011;57339;52.156;5.372;2024-01-11T07:51:33;49.92;;;23.67;;
69998;SDS011;57339;52.156;5.372;2024-01-11T07:54:00;50.22;;;21.13;;
69998;SDS011;57339;52.156;5.372;2024-01-11T07:56:27;54.13;;;22.53;;
69998;SDS011;57339;52.156;5.372;2024-01-11T07:58:55;50.08;;;21.95;;
69998;SDS011;57339;52.156;5.372;2024-01-11T08:01:22;51.17;;;22.27;;
69998;SDS011;57339;52.156;5.372;2024-01-11T08:03:50;46.35;;;21.10;;
69998;SDS011;57339;52.156;5.372;2024-01-11T08:06:17;56.15;;;22.80;;
69998;SDS011;57339;52.156;5.372;2024-01-11T08:08:45;55.23;;;23.50;;
69998;SDS011;57339;52.156;5.372;2024-01-11T08:11:12;52.55;;;22.63;;
69998;SDS011;57339;52.156;5.372;2024-01-11T08:13:39;53.22;;;21.88;;
69998;SDS011;57339;52.156;5.372;2024-01-11T08:16:05;51.40;;;22.17;;
69998;SDS011;57339;52.156;5.372;2024-01-11T08:18:33;52.90;;;21.30;;
69998;SDS011;57339;52.156;5.372;2024-01-11T08:20:59;50.17;;;20.93;;
69998;SDS011;57339;52.156;5.372;2024-01-11T08:23:29;50.55;;;21.27;;
69998;SDS011;57339;52.156;5.372;2024-01-11T08:25:56;50.92;;;21.50;;
69998;SDS011;57339;52.156;5.372;2024-01-11T08:28:23;49.35;;;21.02;;
69998;SDS011;57339;52.156;5.372;2024-01-11T08:30:49;64.32;;;23.50;;
69998;SDS011;57339;52.156;5.372;2024-01-11T08:33:17;55.87;;;23.40;;
69998;SDS011;57339;52.156;5.372;2024-01-11T08:35:44;58.42;;;24.15;;
69998;SDS011;57339;52.156;5.372;2024-01-11T08:38:11;60.50;;;25.42;;
69998;SDS011;57339;52.156;5.372;2024-01-11T08:40:39;52.75;;;23.10;;
69998;SDS011;57339;52.156;5.372;2024-01-11T08:43:06;52.85;;;22.00;;
69998;SDS011;57339;52.156;5.372;2024-01-11T08:45:33;48.77;;;22.10;;
69998;SDS011;57339;52.156;5.372;2024-01-11T08:48:00;56.78;;;23.63;;
69998;SDS011;57339;52.156;5.372;2024-01-11T08:50:27;53.72;;;23.67;;
69998;SDS011;57339;52.156;5.372;2024-01-11T08:52:55;51.92;;;21.60;;
69998;SDS011;57339;52.156;5.372;2024-01-11T08:55:23;53.92;;;22.33;;
69998;SDS011;57339;52.156;5.372;2024-01-11T08:57:50;55.77;;;23.77;;
69998;SDS011;57339;52.156;5.372;2024-01-11T09:00:17;52.42;;;22.48;;
69998;SDS011;57339;52.156;5.372;2024-01-11T09:02:47;52.38;;;22.08;;
69998;SDS011;57339;52.156;5.372;2024-01-11T09:05:16;57.15;;;22.85;;
69998;SDS011;57339;52.156;5.372;2024-01-11T09:07:46;55.33;;;23.92;;
69998;SDS011;57339;52.156;5.372;2024-01-11T09:10:17;56.67;;;22.43;;
69998;SDS011;57339;52.156;5.372;2024-01-11T09:12:45;59.00;;;22.92;;
69998;SDS011;57339;52.156;5.372;2024-01-11T09:15:12;54.00;;;23.63;;
69998;SDS011;57339;52.156;5.372;2024-01-11T09:17:39;52.13;;;22.15;;
69998;SDS011;57339;52.156;5.372;2024-01-11T09:20:06;55.67;;;21.63;;
69998;SDS011;57339;52.156;5.372;2024-01-11T09:22:33;54.63;;;22.07;;
69998;SDS011;57339;52.156;5.372;2024-01-11T09:25:01;51.03;;;21.63;;
69998;SDS011;57339;52.156;5.372;2024-01-11T09:27:28;55.22;;;20.33;;
69998;SDS011;57339;52.156;5.372;2024-01-11T09:29:55;50.70;;;20.15;;
69998;SDS011;57339;52.156;5.372;2024-01-11T09:32:22;49.17;;;20.42;;
69998;SDS011;57339;52.156;5.372;2024-01-11T09:34:50;49.93;;;20.03;;
69998;SDS011;57339;52.156;5.372;2024-01-11T09:37:17;47.47;;;19.20;;
69998;SDS011;57339;52.156;5.372;2024-01-11T09:39:45;48.40;;;19.42;;
69998;SDS011;57339;52.156;5.372;2024-01-11T09:42:12;52.67;;;20.85;;
69998;SDS011;57339;52.156;5.372;2024-01-11T09:44:39;44.97;;;18.67;;
69998;SDS011;57339;52.156;5.372;2024-01-11T09:47:08;48.10;;;18.73;;
69998;SDS011;57339;52.156;5.372;2024-01-11T09:49:42;48.75;;;19.05;;
69998;SDS011;57339;52.156;5.372;2024-01-11T09:52:11;51.08;;;18.70;;
69998;SDS011;57339;52.156;5.372;2024-01-11T09:54:38;49.22;;;18.73;;
69998;SDS011;57339;52.156;5.372;2024-01-11T09:57:06;48.75;;;17.63;;
69998;SDS011;57339;52.156;5.372;2024-01-11T09:59:35;48.70;;;16.73;;
69998;SDS011;57339;52.156;5.372;2024-01-11T10:02:02;49.75;;;18.50;;
69998;SDS011;57339;52.156;5.372;2024-01-11T10:04:30;53.05;;;19.17;;
69998;SDS011;57339;52.156;5.372;2024-01-11T10:06:57;46.72;;;16.92;;
69998;SDS011;57339;52.156;5.372;2024-01-11T10:09:24;47.17;;;17.50;;
69998;SDS011;57339;52.156;5.372;2024-01-11T10:11:52;50.50;;;18.43;;
69998;SDS011;57339;52.156;5.372;2024-01-11T10:14:20;59.75;;;19.40;;
69998;SDS011;57339;52.156;5.372;2024-01-11T10:16:47;51.28;;;17.27;;
69998;SDS011;57339;52.156;5.372;2024-01-11T10:19:17;52.63;;;17.45;;
69998;SDS011;57339;52.156;5.372;2024-01-11T10:21:47;52.38;;;17.48;;
69998;SDS011;57339;52.156;5.372;2024-01-11T10:24:18;51.20;;;18.30;;
69998;SDS011;57339;52.156;5.372;2024-01-11T10:26:46;45.63;;;17.75;;
69998;SDS011;57339;52.156;5.372;2024-01-11T10:29:13;44.58;;;17.48;;
69998;SDS011;57339;52.156;5.372;2024-01-11T10:31:40;48.17;;;16.95;;
69998;SDS011;57339;52.156;5.372;2024-01-11T10:34:07;46.65;;;17.02;;
69998;SDS011;57339;52.156;5.372;2024-01-11T10:36:35;52.20;;;18.20;;
69998;SDS011;57339;52.156;5.372;2024-01-11T10:39:02;45.08;;;16.63;;
69998;SDS011;57339;52.156;5.372;2024-01-11T10:41:31;50.17;;;18.05;;
69998;SDS011;57339;52.156;5.372;2024-01-11T10:44:05;52.20;;;18.30;;
69998;SDS011;57339;52.156;5.372;2024-01-11T10:46:49;52.03;;;17.10;;
69998;SDS011;57339;52.156;5.372;2024-01-11T10:49:17;46.83;;;16.87;;
69998;SDS011;57339;52.156;5.372;2024-01-11T10:51:55;52.67;;;17.73;;
69998;SDS011;57339;52.156;5.372;2024-01-11T10:54:27;47.75;;;18.10;;
69998;SDS011;57339;52.156;5.372;2024-01-11T10:56:54;46.88;;;16.75;;
69998;SDS011;57339;52.156;5.372;2024-01-11T10:59:22;52.30;;;17.25;;
69998;SDS011;57339;52.156;5.372;2024-01-11T11:01:51;47.47;;;17.30;;
69998;SDS011;57339;52.156;5.372;2024-01-11T11:04:19;45.97;;;16.38;;
69998;SDS011;57339;52.156;5.372;2024-01-11T11:06:55;50.20;;;17.58;;
69998;SDS011;57339;52.156;5.372;2024-01-11T11:09:22;47.30;;;16.63;;
69998;SDS011;57339;52.156;5.372;2024-01-11T11:11:53;45.83;;;16.13;;
69998;SDS011;57339;52.156;5.372;2024-01-11T11:14:22;43.97;;;16.07;;
69998;SDS011;57339;52.156;5.372;2024-01-11T11:16:51;48.30;;;15.80;;
69998;SDS011;57339;52.156;5.372;2024-01-11T11:19:21;49.17;;;17.65;;
69998;SDS011;57339;52.156;5.372;2024-01-11T11:21:50;49.33;;;17.67;;
69998;SDS011;57339;52.156;5.372;2024-01-11T11:24:17;51.65;;;17.20;;
69998;SDS011;57339;52.156;5.372;2024-01-11T11:26:44;43.17;;;15.67;;
69998;SDS011;57339;52.156;5.372;2024-01-11T11:29:10;46.30;;;15.77;;
69998;SDS011;57339;52.156;5.372;2024-01-11T11:31:41;42.50;;;15.15;;
69998;SDS011;57339;52.156;5.372;2024-01-11T11:34:11;45.15;;;15.50;;
69998;SDS011;57339;52.156;5.372;2024-01-11T11:36:41;41.13;;;15.50;;
69998;SDS011;57339;52.156;5.372;2024-01-11T11:39:12;60.83;;;17.40;;
69998;SDS011;57339;52.156;5.372;2024-01-11T11:41:41;49.35;;;15.38;;
69998;SDS011;57339;52.156;5.372;2024-01-11T11:44:11;47.50;;;16.42;;
69998;SDS011;57339;52.156;5.372;2024-01-11T11:46:39;41.38;;;14.77;;
69998;SDS011;57339;52.156;5.372;2024-01-11T11:49:06;42.20;;;16.20;;
69998;SDS011;57339;52.156;5.372;2024-01-11T11:51:33;42.23;;;15.97;;
69998;SDS011;57339;52.156;5.372;2024-01-11T11:54:01;40.65;;;15.80;;
69998;SDS011;57339;52.156;5.372;2024-01-11T11:56:29;40.63;;;15.68;;
69998;SDS011;57339;52.156;5.372;2024-01-11T11:58:56;38.95;;;16.25;;
69998;SDS011;57339;52.156;5.372;2024-01-11T12:01:24;38.72;;;14.65;;
69998;SDS011;57339;52.156;5.372;2024-01-11T12:03:52;39.90;;;15.20;;
69998;SDS011;57339;52.156;5.372;2024-01-11T12:06:22;40.22;;;15.40;;
69998;SDS011;57339;52.156;5.372;2024-01-11T12:08:51;38.20;;;14.45;;
69998;SDS011;57339;52.156;5.372;2024-01-11T12:11:23;34.60;;;13.98;;
69998;SDS011;57339;52.156;5.372;2024-01-11T12:13:50;41.85;;;14.98;;
69998;SDS011;57339;52.156;5.372;2024-01-11T12:16:18;35.30;;;14.40;;
69998;SDS011;57339;52.156;5.372;2024-01-11T12:18:48;39.38;;;14.20;;
69998;SDS011;57339;52.156;5.372;2024-01-11T12:21:20;34.67;;;13.80;;
69998;SDS011;57339;52.156;5.372;2024-01-11T12:23:47;33.33;;;13.27;;
69998;SDS011;57339;52.156;5.372;2024-01-11T12:26:15;35.33;;;14.52;;
69998;SDS011;57339;52.156;5.372;2024-01-11T12:28:43;37.83;;;14.07;;
69998;SDS011;57339;52.156;5.372;2024-01-11T12:31:11;37.45;;;14.82;;
69998;SDS011;57339;52.156;5.372;2024-01-11T12:33:39;39.25;;;17.48;;
69998;SDS011;57339;52.156;5.372;2024-01-11T12:36:06;43.40;;;18.50;;
69998;SDS011;57339;52.156;5.372;2024-01-11T12:38:34;36.47;;;16.15;;
69998;SDS011;57339;52.156;5.372;2024-01-11T12:41:02;40.00;;;16.27;;
69998;SDS011;57339;52.156;5.372;2024-01-11T12:43:31;35.10;;;14.05;;
69998;SDS011;57339;52.156;5.372;2024-01-11T12:45:58;38.88;;;17.20;;
69998;SDS011;57339;52.156;5.372;2024-01-11T12:48:26;40.17;;;17.67;;
69998;SDS011;57339;52.156;5.372;2024-01-11T12:50:53;39.78;;;15.80;;
69998;SDS011;57339;52.156;5.372;2024-01-11T12:53:39;40.90;;;17.43;;
69998;SDS011;57339;52.156;5.372;2024-01-11T12:56:07;39.63;;;16.17;;
69998;SDS011;57339;52.156;5.372;2024-01-11T12:58:35;37.75;;;15.85;;
69998;SDS011;57339;52.156;5.372;2024-01-11T13:01:06;37.53;;;16.13;;
69998;SDS011;57339;52.156;5.372;2024-01-11T13:03:40;35.67;;;15.65;;
69998;SDS011;57339;52.156;5.372;2024-01-11T13:06:11;34.17;;;14.40;;
69998;SDS011;57339;52.156;5.372;2024-01-11T13:08:39;31.67;;;13.02;;
69998;SDS011;57339;52.156;5.372;2024-01-11T13:11:06;31.92;;;13.05;;
69998;SDS011;57339;52.156;5.372;2024-01-11T13:13:34;29.63;;;12.18;;
69998;SDS011;57339;52.156;5.372;2024-01-11T13:16:02;31.35;;;12.95;;
69998;SDS011;57339;52.156;5.372;2024-01-11T13:18:29;30.00;;;12.07;;
69998;SDS011;57339;52.156;5.372;2024-01-11T13:20:56;35.53;;;13.40;;
69998;SDS011;57339;52.156;5.372;2024-01-11T13:23:23;33.15;;;13.18;;
69998;SDS011;57339;52.156;5.372;2024-01-11T13:25:50;30.73;;;12.90;;
69998;SDS011;57339;52.156;5.372;2024-01-11T13:28:18;32.88;;;13.77;;
69998;SDS011;57339;52.156;5.372;2024-01-11T13:30:47;29.60;;;12.47;;
69998;SDS011;57339;52.156;5.372;2024-01-11T13:33:15;27.45;;;11.45;;
69998;SDS011;57339;52.156;5.372;2024-01-11T13:35:43;32.45;;;12.05;;
69998;SDS011;57339;52.156;5.372;2024-01-11T13:38:10;31.25;;;12.02;;
69998;SDS011;57339;52.156;5.372;2024-01-11T13:40:40;31.55;;;12.10;;
69998;SDS011;57339;52.156;5.372;2024-01-11T13:43:07;29.97;;;11.47;;
69998;SDS011;57339;52.156;5.372;2024-01-11T13:45:35;30.75;;;11.82;;
69998;SDS011;57339;52.156;5.372;2024-01-11T13:48:03;28.73;;;11.80;;
69998;SDS011;57339;52.156;5.372;2024-01-11T13:50:31;28.65;;;11.68;;
69998;SDS011;57339;52.156;5.372;2024-01-11T13:53:01;30.90;;;12.30;;
69998;SDS011;57339;52.156;5.372;2024-01-11T13:55:28;26.40;;;11.03;;
69998;SDS011;57339;52.156;5.372;2024-01-11T13:57:57;29.98;;;11.85;;
69998;SDS011;57339;52.156;5.372;2024-01-11T14:00:24;31.55;;;12.23;;
69998;SDS011;57339;52.156;5.372;2024-01-11T14:02:51;27.65;;;10.95;;
69998;SDS011;57339;52.156;5.372;2024-01-11T14:05:19;30.50;;;12.52;;
69998;SDS011;57339;52.156;5.372;2024-01-11T14:07:49;26.40;;;10.83;;
69998;SDS011;57339;52.156;5.372;2024-01-11T14:10:21;29.08;;;11.80;;
69998;SDS011;57339;52.156;5.372;2024-01-11T14:12:50;24.38;;;9.80;;
69998;SDS011;57339;52.156;5.372;2024-01-11T14:15:17;26.48;;;11.10;;
69998;SDS011;57339;52.156;5.372;2024-01-11T14:17:47;26.73;;;11.45;;
69998;SDS011;57339;52.156;5.372;2024-01-11T14:20:16;26.87;;;11.23;;
69998;SDS011;57339;52.156;5.372;2024-01-11T14:22:44;27.02;;;11.75;;
69998;SDS011;57339;52.156;5.372;2024-01-11T14:25:12;31.98;;;12.73;;
69998;SDS011;57339;52.156;5.372;2024-01-11T14:27:39;27.20;;;12.07;;